Huvudsida
METAR-TAF:

METAR-TAF

Flygplatser :

Staunings flygplats

Ringkøbing-Skjern, Danmark

latitud: 56-00N, longitud: 008-21E, höjd: 5 m

Aktuellt väderrapport

Denna rapport gjordes för 5 timmar och 51 minuter sedan, klockan 14:50 UTC
Vind 13 kt från syd/sydväst
Temperatur 5°C
Fuktighet 100%
Tryck 1011 hPa
Sikt: 1800 m
Brutna moln på en höjd av 400 ft
lätt duggregn, fuktdis

METAR: EKVJ 261450Z 20013KT 1800 -DZ BR BKN004 05/05 Q1011

Tid: 21:41 (20:41 UTC)

Väderprognos

Denna rapport gjordes för 8 timmar och 47 minuter sedan, klockan 11:54 UTC
Prognos gäller från 26 kl. 12 UTC till 26 kl. 16 UTC
Vind 15 kt från syd
Sikt: 6000 m
Brutna moln på en höjd av 600 ft
Temporärt
från 26 kl. 12 UTC till 26 kl. 16 UTC
Sikt: 1500 m
Brutna moln på en höjd av 300 ft
lätt regn, duggregn, fuktdis

TAF: EKVJ 261154Z 2612/2616 18015KT 6000 BKN006 TEMPO 2612/2616 1500 -RADZ BR BKN003

Aktuella väderrapporter och prognoser från 4000 flygplatser (METAR- och TAF-rapporter).

De tillgängliga stationerna syns som gula och röda prickar på kartan.

För musen över prickarna för att se namnen på stationerna.

Klicka sedan för att få väderrapporter och prognoser.

För att ändra kartan: Klicka på de gröna knapparna med ett svart kors på för att zooma in; den gröna knappen med ett streck på för att zooma ut; eller på de gröna pilarna för angränsande kartor.


METAR-TAF: